sensor_id;sensor_type;location;lat;lon;timestamp;pressure;altitude;pressure_sealevel;temperature;humidity
74045;BME280;62389;51.412;5.436;2023-03-01T00:01:25;102984.91;;;0.95;57.99
74045;BME280;62389;51.412;5.436;2023-03-01T00:03:51;102985.78;;;0.95;57.78
74045;BME280;62389;51.412;5.436;2023-03-01T00:06:17;102978.16;;;0.98;57.32
74045;BME280;62389;51.412;5.436;2023-03-01T00:08:43;102987.63;;;0.99;57.75
74045;BME280;62389;51.412;5.436;2023-03-01T00:11:13;102982.50;;;0.99;57.59
74045;BME280;62389;51.412;5.436;2023-03-01T00:13:38;102990.22;;;0.99;57.22
74045;BME280;62389;51.412;5.436;2023-03-01T00:16:06;102992.78;;;0.99;57.54
74045;BME280;62389;51.412;5.436;2023-03-01T00:18:32;102986.78;;;0.99;57.54
74045;BME280;62389;51.412;5.436;2023-03-01T00:20:58;102984.16;;;0.97;57.90
74045;BME280;62389;51.412;5.436;2023-03-01T00:23:23;102986.69;;;0.96;58.14
74045;BME280;62389;51.412;5.436;2023-03-01T00:25:49;102983.16;;;0.92;58.28
74045;BME280;62389;51.412;5.436;2023-03-01T00:28:15;102982.16;;;0.89;58.79
74045;BME280;62389;51.412;5.436;2023-03-01T00:30:41;102981.19;;;0.85;59.23
74045;BME280;62389;51.412;5.436;2023-03-01T00:33:06;102977.59;;;0.80;58.69
74045;BME280;62389;51.412;5.436;2023-03-01T00:35:32;102980.09;;;0.77;58.98
74045;BME280;62389;51.412;5.436;2023-03-01T00:37:59;102983.50;;;0.76;58.62
74045;BME280;62389;51.412;5.436;2023-03-01T00:40:25;102982.63;;;0.75;59.07
74045;BME280;62389;51.412;5.436;2023-03-01T00:42:50;102970.56;;;0.74;58.83
74045;BME280;62389;51.412;5.436;2023-03-01T00:45:16;102978.25;;;0.73;58.57
74045;BME280;62389;51.412;5.436;2023-03-01T00:47:42;102988.56;;;0.73;58.66
74045;BME280;62389;51.412;5.436;2023-03-01T00:50:08;102978.25;;;0.73;58.35
74045;BME280;62389;51.412;5.436;2023-03-01T00:52:33;102980.00;;;0.74;58.65
74045;BME280;62389;51.412;5.436;2023-03-01T00:54:59;102975.69;;;0.73;58.24
74045;BME280;62389;51.412;5.436;2023-03-01T00:57:24;102966.97;;;0.69;60.20
74045;BME280;62389;51.412;5.436;2023-03-01T00:59:49;102966.75;;;0.62;60.47
74045;BME280;62389;51.412;5.436;2023-03-01T01:02:17;102965.63;;;0.54;60.43
74045;BME280;62389;51.412;5.436;2023-03-01T01:04:44;102967.22;;;0.50;59.52
74045;BME280;62389;51.412;5.436;2023-03-01T01:07:10;102962.06;;;0.50;60.04
74045;BME280;62389;51.412;5.436;2023-03-01T01:09:35;102957.75;;;0.49;59.76
74045;BME280;62389;51.412;5.436;2023-03-01T01:12:01;102956.88;;;0.48;59.54
74045;BME280;62389;51.412;5.436;2023-03-01T01:14:27;102951.66;;;0.45;60.34
74045;BME280;62389;51.412;5.436;2023-03-01T01:16:52;102951.50;;;0.41;60.43
74045;BME280;62389;51.412;5.436;2023-03-01T01:19:17;102954.00;;;0.39;60.40
74045;BME280;62389;51.412;5.436;2023-03-01T01:21:43;102950.47;;;0.36;61.23
74045;BME280;62389;51.412;5.436;2023-03-01T01:24:09;102951.09;;;0.29;61.09
74045;BME280;62389;51.412;5.436;2023-03-01T01:26:34;102945.78;;;0.24;60.92
74045;BME280;62389;51.412;5.436;2023-03-01T01:29:01;102938.00;;;0.21;61.39
74045;BME280;62389;51.412;5.436;2023-03-01T01:31:28;102929.25;;;0.16;61.43
74045;BME280;62389;51.412;5.436;2023-03-01T01:33:55;102930.88;;;0.14;61.27
74045;BME280;62389;51.412;5.436;2023-03-01T01:36:21;102925.78;;;0.15;60.87
74045;BME280;62389;51.412;5.436;2023-03-01T01:38:46;102912.97;;;0.17;60.91
74045;BME280;62389;51.412;5.436;2023-03-01T01:41:13;102913.88;;;0.19;60.54
74045;BME280;62389;51.412;5.436;2023-03-01T01:43:41;102916.47;;;0.19;60.96
74045;BME280;62389;51.412;5.436;2023-03-01T01:48:48;102913.94;;;0.20;60.38
74045;BME280;62389;51.412;5.436;2023-03-01T01:51:19;102908.69;;;0.17;60.97
74045;BME280;62389;51.412;5.436;2023-03-01T01:53:50;102900.94;;;0.16;58.91
74045;BME280;62389;51.412;5.436;2023-03-01T01:56:16;102901.69;;;0.13;60.29
74045;BME280;62389;51.412;5.436;2023-03-01T01:58:44;102908.44;;;0.10;60.68
74045;BME280;62389;51.412;5.436;2023-03-01T02:01:10;102903.25;;;0.08;60.92
74045;BME280;62389;51.412;5.436;2023-03-01T02:03:38;102900.63;;;0.07;61.07
74045;BME280;62389;51.412;5.436;2023-03-01T02:06:22;102904.91;;;0.06;60.79
74045;BME280;62389;51.412;5.436;2023-03-01T02:08:57;102896.25;;;0.04;61.67
74045;BME280;62389;51.412;5.436;2023-03-01T02:11:24;102896.16;;;0.01;61.48
74045;BME280;62389;51.412;5.436;2023-03-01T02:13:51;102887.50;;;-0.01;61.70
74045;BME280;62389;51.412;5.436;2023-03-01T02:16:19;102895.19;;;-0.03;61.61
74045;BME280;62389;51.412;5.436;2023-03-01T02:18:45;102883.16;;;-0.04;61.49
74045;BME280;62389;51.412;5.436;2023-03-01T02:21:24;102875.44;;;-0.04;61.85
74045;BME280;62389;51.412;5.436;2023-03-01T02:23:53;102876.25;;;-0.05;61.69
74045;BME280;62389;51.412;5.436;2023-03-01T02:26:25;102877.06;;;-0.06;61.23
74045;BME280;62389;51.412;5.436;2023-03-01T02:28:53;102871.00;;;-0.08;62.28
74045;BME280;62389;51.412;5.436;2023-03-01T02:31:20;102872.66;;;-0.10;61.70
74045;BME280;62389;51.412;5.436;2023-03-01T02:34:04;102871.00;;;-0.08;59.80
74045;BME280;62389;51.412;5.436;2023-03-01T02:36:35;102877.81;;;-0.10;61.70
74045;BME280;62389;51.412;5.436;2023-03-01T02:39:04;102874.28;;;-0.12;61.76
74045;BME280;62389;51.412;5.436;2023-03-01T02:41:35;102881.09;;;-0.14;61.64
74045;BME280;62389;51.412;5.436;2023-03-01T02:44:02;102877.59;;;-0.16;62.37
74045;BME280;62389;51.412;5.436;2023-03-01T02:46:27;102883.56;;;-0.17;61.79
74045;BME280;62389;51.412;5.436;2023-03-01T02:48:55;102883.53;;;-0.18;62.23
74045;BME280;62389;51.412;5.436;2023-03-01T02:56:50;102882.53;;;-0.22;62.22
74045;BME280;62389;51.412;5.436;2023-03-01T02:59:24;102881.63;;;-0.24;62.14
74045;BME280;62389;51.412;5.436;2023-03-01T03:01:52;102885.81;;;-0.26;63.19
74045;BME280;62389;51.412;5.436;2023-03-01T03:04:18;102880.69;;;-0.26;62.86
74045;BME280;62389;51.412;5.436;2023-03-01T03:06:49;102878.03;;;-0.29;63.82
74045;BME280;62389;51.412;5.436;2023-03-01T03:09:16;102877.78;;;-0.35;63.10
74045;BME280;62389;51.412;5.436;2023-03-01T03:11:42;102871.72;;;-0.37;63.10
74045;BME280;62389;51.412;5.436;2023-03-01T03:14:10;102872.56;;;-0.38;62.61
74045;BME280;62389;51.412;5.436;2023-03-01T03:16:49;102876.84;;;-0.39;62.66
74045;BME280;62389;51.412;5.436;2023-03-01T03:19:16;102876.75;;;-0.40;63.00
74045;BME280;62389;51.412;5.436;2023-03-01T03:21:41;102875.00;;;-0.41;62.97
74045;BME280;62389;51.412;5.436;2023-03-01T03:24:07;102869.88;;;-0.41;64.20
74045;BME280;62389;51.412;5.436;2023-03-01T03:26:33;102869.88;;;-0.41;63.48
74045;BME280;62389;51.412;5.436;2023-03-01T03:28:58;102872.44;;;-0.41;63.27
74045;BME280;62389;51.412;5.436;2023-03-01T03:31:24;102868.09;;;-0.44;63.31
74045;BME280;62389;51.412;5.436;2023-03-01T03:33:50;102869.72;;;-0.46;63.42
74045;BME280;62389;51.412;5.436;2023-03-01T03:36:18;102865.41;;;-0.47;63.41
74045;BME280;62389;51.412;5.436;2023-03-01T03:38:44;102868.75;;;-0.49;63.46
74045;BME280;62389;51.412;5.436;2023-03-01T03:41:11;102872.97;;;-0.52;63.88
74045;BME280;62389;51.412;5.436;2023-03-01T03:43:38;102867.72;;;-0.55;63.42
74045;BME280;62389;51.412;5.436;2023-03-01T03:46:04;102867.72;;;-0.55;63.89
74045;BME280;62389;51.412;5.436;2023-03-01T03:48:33;102867.66;;;-0.56;63.26
74045;BME280;62389;51.412;5.436;2023-03-01T03:50:58;102861.63;;;-0.57;63.56
74045;BME280;62389;51.412;5.436;2023-03-01T03:53:25;102869.34;;;-0.57;63.82
74045;BME280;62389;51.412;5.436;2023-03-01T03:55:52;102871.00;;;-0.59;63.91
74045;BME280;62389;51.412;5.436;2023-03-01T03:58:19;102863.25;;;-0.60;64.23
74045;BME280;62389;51.412;5.436;2023-03-01T04:00:47;102860.69;;;-0.60;64.20
74045;BME280;62389;51.412;5.436;2023-03-01T04:03:14;102866.63;;;-0.61;64.42
74045;BME280;62389;51.412;5.436;2023-03-01T04:05:41;102863.97;;;-0.64;64.00
74045;BME280;62389;51.412;5.436;2023-03-01T04:08:08;102860.44;;;-0.66;65.18
74045;BME280;62389;51.412;5.436;2023-03-01T04:10:42;102856.09;;;-0.69;64.20
74045;BME280;62389;51.412;5.436;2023-03-01T04:13:16;102853.53;;;-0.69;64.06
74045;BME280;62389;51.412;5.436;2023-03-01T04:15:44;102841.50;;;-0.70;64.53
74045;BME280;62389;51.412;5.436;2023-03-01T04:18:12;102845.69;;;-0.72;64.29
74045;BME280;62389;51.412;5.436;2023-03-01T04:20:38;102843.94;;;-0.73;64.62
74045;BME280;62389;51.412;5.436;2023-03-01T04:23:07;102841.25;;;-0.76;64.40
74045;BME280;62389;51.412;5.436;2023-03-01T04:25:57;102840.34;;;-0.78;64.59
74045;BME280;62389;51.412;5.436;2023-03-01T04:30:51;102844.44;;;-0.83;64.66
74045;BME280;62389;51.412;5.436;2023-03-01T04:33:17;102842.72;;;-0.84;64.77
74045;BME280;62389;51.412;5.436;2023-03-01T04:35:42;102836.63;;;-0.86;65.89
74045;BME280;62389;51.412;5.436;2023-03-01T04:38:08;102839.09;;;-0.89;65.18
74045;BME280;62389;51.412;5.436;2023-03-01T04:40:34;102834.72;;;-0.92;64.93
74045;BME280;62389;51.412;5.436;2023-03-01T04:42:59;102830.34;;;-0.94;65.45
74045;BME280;62389;51.412;5.436;2023-03-01T04:45:25;102821.72;;;-0.96;65.99
74045;BME280;62389;51.412;5.436;2023-03-01T04:47:51;102819.84;;;-1.00;65.59
74045;BME280;62389;51.412;5.436;2023-03-01T04:50:18;102820.66;;;-1.01;65.61
74045;BME280;62389;51.412;5.436;2023-03-01T04:52:48;102809.47;;;-1.03;65.41
74045;BME280;62389;51.412;5.436;2023-03-01T04:55:14;102812.06;;;-1.03;65.73
74045;BME280;62389;51.412;5.436;2023-03-01T04:57:39;102810.31;;;-1.05;65.98
74045;BME280;62389;51.412;5.436;2023-03-01T05:00:06;102807.75;;;-1.05;65.88
74045;BME280;62389;51.412;5.436;2023-03-01T05:02:47;102816.25;;;-1.06;65.57
74045;BME280;62389;51.412;5.436;2023-03-01T05:05:14;102818.75;;;-1.07;65.90
74045;BME280;62389;51.412;5.436;2023-03-01T05:07:39;102818.72;;;-1.09;66.12
74045;BME280;62389;51.412;5.436;2023-03-01T05:10:05;102817.84;;;-1.09;66.11
74045;BME280;62389;51.412;5.436;2023-03-01T05:12:30;102831.56;;;-1.09;66.14
74045;BME280;62389;51.412;5.436;2023-03-01T05:14:55;102829.81;;;-1.10;66.23
74045;BME280;62389;51.412;5.436;2023-03-01T05:17:21;102820.34;;;-1.11;66.32
74045;BME280;62389;51.412;5.436;2023-03-01T05:19:46;102816.84;;;-1.13;66.01
74045;BME280;62389;51.412;5.436;2023-03-01T05:22:11;102809.16;;;-1.13;66.28
74045;BME280;62389;51.412;5.436;2023-03-01T05:24:37;102805.72;;;-1.13;66.11
74045;BME280;62389;51.412;5.436;2023-03-01T05:27:03;102801.41;;;-1.14;66.29
74045;BME280;62389;51.412;5.436;2023-03-01T05:29:30;102809.03;;;-1.16;66.18
74045;BME280;62389;51.412;5.436;2023-03-01T05:32:00;102801.28;;;-1.17;66.38
74045;BME280;62389;51.412;5.436;2023-03-01T05:34:28;102798.66;;;-1.19;66.17
74045;BME280;62389;51.412;5.436;2023-03-01T05:36:54;102790.97;;;-1.19;66.07
74045;BME280;62389;51.412;5.436;2023-03-01T05:39:21;102782.31;;;-1.21;66.33
74045;BME280;62389;51.412;5.436;2023-03-01T05:41:48;102784.13;;;-1.18;65.98
74045;BME280;62389;51.412;5.436;2023-03-01T05:44:13;102781.56;;;-1.18;66.48
74045;BME280;62389;51.412;5.436;2023-03-01T05:46:38;102778.00;;;-1.22;66.89
74045;BME280;62389;51.412;5.436;2023-03-01T05:49:04;102787.19;;;-1.28;67.35
74045;BME280;62389;51.412;5.436;2023-03-01T05:51:30;102785.38;;;-1.31;67.17
74045;BME280;62389;51.412;5.436;2023-03-01T05:53:55;102794.72;;;-1.33;67.91
74045;BME280;62389;51.412;5.436;2023-03-01T05:56:21;102781.72;;;-1.38;68.02
74045;BME280;62389;51.412;5.436;2023-03-01T05:58:48;102779.84;;;-1.42;67.92
74045;BME280;62389;51.412;5.436;2023-03-01T06:01:14;102787.50;;;-1.43;67.69
74045;BME280;62389;51.412;5.436;2023-03-01T06:03:39;102774.66;;;-1.43;67.17
74045;BME280;62389;51.412;5.436;2023-03-01T06:06:05;102779.84;;;-1.42;66.94
74045;BME280;62389;51.412;5.436;2023-03-01T06:08:30;102775.59;;;-1.41;67.24
74045;BME280;62389;51.412;5.436;2023-03-01T06:10:55;102775.59;;;-1.41;67.44
74045;BME280;62389;51.412;5.436;2023-03-01T06:13:22;102774.78;;;-1.40;67.18
74045;BME280;62389;51.412;5.436;2023-03-01T06:15:48;102779.03;;;-1.41;66.68
74045;BME280;62389;51.412;5.436;2023-03-01T06:18:13;102774.66;;;-1.43;67.15
74045;BME280;62389;51.412;5.436;2023-03-01T06:20:39;102779.81;;;-1.43;67.09
74045;BME280;62389;51.412;5.436;2023-03-01T06:23:04;102777.22;;;-1.43;67.29
74045;BME280;62389;51.412;5.436;2023-03-01T06:25:30;102782.38;;;-1.43;67.51
74045;BME280;62389;51.412;5.436;2023-03-01T06:27:55;102780.63;;;-1.44;67.54
74045;BME280;62389;51.412;5.436;2023-03-01T06:30:22;102784.88;;;-1.45;67.56
74045;BME280;62389;51.412;5.436;2023-03-01T06:32:49;102793.47;;;-1.44;67.42
74045;BME280;62389;51.412;5.436;2023-03-01T06:35:16;102786.63;;;-1.44;67.00
74045;BME280;62389;51.412;5.436;2023-03-01T06:37:46;102793.47;;;-1.44;66.98
74045;BME280;62389;51.412;5.436;2023-03-01T06:40:12;102788.38;;;-1.43;67.13
74045;BME280;62389;51.412;5.436;2023-03-01T06:42:40;102796.13;;;-1.41;67.41
74045;BME280;62389;51.412;5.436;2023-03-01T06:45:07;102791.06;;;-1.40;67.34
74045;BME280;62389;51.412;5.436;2023-03-01T06:47:33;102793.69;;;-1.38;66.88
74045;BME280;62389;51.412;5.436;2023-03-01T06:50:02;102792.84;;;-1.37;67.24
74045;BME280;62389;51.412;5.436;2023-03-01T06:52:29;102786.91;;;-1.36;67.10
74045;BME280;62389;51.412;5.436;2023-03-01T06:54:54;102792.97;;;-1.34;67.08
74045;BME280;62389;51.412;5.436;2023-03-01T06:57:20;102787.88;;;-1.33;66.95
74045;BME280;62389;51.412;5.436;2023-03-01T06:59:47;102779.44;;;-1.30;67.30
74045;BME280;62389;51.412;5.436;2023-03-01T07:02:12;102779.53;;;-1.27;66.91
74045;BME280;62389;51.412;5.436;2023-03-01T07:04:38;102774.47;;;-1.25;67.51
74045;BME280;62389;51.412;5.436;2023-03-01T07:07:04;102771.94;;;-1.24;67.28
74045;BME280;62389;51.412;5.436;2023-03-01T07:09:30;102777.16;;;-1.21;67.29
74045;BME280;62389;51.412;5.436;2023-03-01T07:11:56;102782.44;;;-1.18;67.08
74045;BME280;62389;51.412;5.436;2023-03-01T07:14:22;102738.06;;;-1.14;67.20
74045;BME280;62389;51.412;5.436;2023-03-01T07:16:49;102747.63;;;-1.10;66.90
74045;BME280;62389;51.412;5.436;2023-03-01T07:19:15;102758.94;;;-1.05;66.90
74045;BME280;62389;51.412;5.436;2023-03-01T07:21:40;102757.44;;;-0.98;66.34
74045;BME280;62389;51.412;5.436;2023-03-01T07:24:07;102765.31;;;-0.93;66.61
74045;BME280;62389;51.412;5.436;2023-03-01T07:26:32;102768.19;;;-0.84;66.81
74045;BME280;62389;51.412;5.436;2023-03-01T07:29:03;102763.41;;;-0.73;65.99
74045;BME280;62389;51.412;5.436;2023-03-01T07:31:28;102769.97;;;-0.56;65.93
74045;BME280;62389;51.412;5.436;2023-03-01T07:33:55;102762.19;;;-0.32;65.15
74045;BME280;62389;51.412;5.436;2023-03-01T07:36:20;102754.34;;;-0.10;64.45
74045;BME280;62389;51.412;5.436;2023-03-01T07:38:46;102768.56;;;0.08;64.19
74045;BME280;62389;51.412;5.436;2023-03-01T07:41:11;102760.84;;;0.36;63.06
74045;BME280;62389;51.412;5.436;2023-03-01T07:43:37;102757.00;;;0.82;63.30
74045;BME280;62389;51.412;5.436;2023-03-01T07:46:03;102764.94;;;1.58;60.84
74045;BME280;62389;51.412;5.436;2023-03-01T07:48:29;102765.00;;;2.36;59.36
74045;BME280;62389;51.412;5.436;2023-03-01T07:51:03;102761.22;;;3.58;57.60
74045;BME280;62389;51.412;5.436;2023-03-01T07:53:30;102765.91;;;5.26;53.91
74045;BME280;62389;51.412;5.436;2023-03-01T07:58:27;102757.09;;;8.72;46.15
74045;BME280;62389;51.412;5.436;2023-03-01T08:00:53;102750.63;;;10.19;42.26
74045;BME280;62389;51.412;5.436;2023-03-01T08:03:18;102747.75;;;11.58;39.84
74045;BME280;62389;51.412;5.436;2023-03-01T08:05:43;102745.63;;;12.68;37.04
74045;BME280;62389;51.412;5.436;2023-03-01T08:08:09;102749.38;;;13.68;35.39
74045;BME280;62389;51.412;5.436;2023-03-01T08:10:36;102757.84;;;14.72;33.36
74045;BME280;62389;51.412;5.436;2023-03-01T08:13:01;102752.50;;;15.55;31.05
74045;BME280;62389;51.412;5.436;2023-03-01T08:15:27;102745.09;;;16.16;30.35
74045;BME280;62389;51.412;5.436;2023-03-01T08:17:52;102742.84;;;16.76;29.12
74045;BME280;62389;51.412;5.436;2023-03-01T08:20:18;102740.88;;;17.45;28.01
74045;BME280;62389;51.412;5.436;2023-03-01T08:22:43;102736.84;;;18.18;27.09
74045;BME280;62389;51.412;5.436;2023-03-01T08:25:09;102738.88;;;18.70;25.92
74045;BME280;62389;51.412;5.436;2023-03-01T08:27:34;102738.56;;;19.12;25.36
74045;BME280;62389;51.412;5.436;2023-03-01T08:30:00;102742.19;;;19.46;24.95
74045;BME280;62389;51.412;5.436;2023-03-01T08:32:25;102743.75;;;19.84;23.80
74045;BME280;62389;51.412;5.436;2023-03-01T08:34:51;102736.13;;;20.27;23.55
74045;BME280;62389;51.412;5.436;2023-03-01T08:37:16;102729.31;;;20.86;22.57
74045;BME280;62389;51.412;5.436;2023-03-01T08:39:41;102733.00;;;21.30;21.73
74045;BME280;62389;51.412;5.436;2023-03-01T08:42:07;102730.06;;;21.79;21.40
74045;BME280;62389;51.412;5.436;2023-03-01T08:44:32;102727.88;;;22.28;21.18
74045;BME280;62389;51.412;5.436;2023-03-01T08:46:58;102717.69;;;22.76;20.14
74045;BME280;62389;51.412;5.436;2023-03-01T08:49:25;102706.53;;;23.23;19.48
74045;BME280;62389;51.412;5.436;2023-03-01T08:51:50;102716.63;;;23.58;19.42
74045;BME280;62389;51.412;5.436;2023-03-01T08:54:18;102716.78;;;23.95;18.92
74045;BME280;62389;51.412;5.436;2023-03-01T08:56:44;102715.09;;;24.31;18.38
74045;BME280;62389;51.412;5.436;2023-03-01T08:59:11;102714.38;;;24.65;17.90
74045;BME280;62389;51.412;5.436;2023-03-01T09:01:36;102712.50;;;24.90;23.05
74045;BME280;62389;51.412;5.436;2023-03-01T09:04:02;102718.16;;;24.98;17.66
74045;BME280;62389;51.412;5.436;2023-03-01T09:06:30;102709.38;;;25.20;17.36
74045;BME280;62389;51.412;5.436;2023-03-01T09:08:56;102704.72;;;25.57;16.80
74045;BME280;62389;51.412;5.436;2023-03-01T09:11:22;102693.94;;;25.81;16.55
74045;BME280;62389;51.412;5.436;2023-03-01T09:13:48;102697.81;;;25.99;16.13
74045;BME280;62389;51.412;5.436;2023-03-01T09:16:16;102690.34;;;26.25;16.06
74045;BME280;62389;51.412;5.436;2023-03-01T09:18:43;102690.72;;;26.43;15.65
74045;BME280;62389;51.412;5.436;2023-03-01T09:21:10;102682.81;;;26.74;15.18
74045;BME280;62389;51.412;5.436;2023-03-01T09:23:37;102686.72;;;27.02;15.37
74045;BME280;62389;51.412;5.436;2023-03-01T09:26:04;102682.16;;;27.14;14.91
74045;BME280;62389;51.412;5.436;2023-03-01T09:28:30;102684.41;;;26.76;15.43
74045;BME280;62389;51.412;5.436;2023-03-01T09:30:59;102688.72;;;26.89;16.21
74045;BME280;62389;51.412;5.436;2023-03-01T09:33:25;102694.16;;;27.09;15.03
74045;BME280;62389;51.412;5.436;2023-03-01T09:36:02;102681.97;;;27.47;15.67
74045;BME280;62389;51.412;5.436;2023-03-01T09:38:29;102682.91;;;27.67;14.38
74045;BME280;62389;51.412;5.436;2023-03-01T09:40:55;102683.72;;;27.88;14.41
74045;BME280;62389;51.412;5.436;2023-03-01T09:46:02;102658.47;;;27.49;14.51
74045;BME280;62389;51.412;5.436;2023-03-01T09:48:37;102659.91;;;27.74;14.54
74045;BME280;62389;51.412;5.436;2023-03-01T09:51:12;102670.31;;;28.38;14.87
74045;BME280;62389;51.412;5.436;2023-03-01T09:53:37;102656.53;;;28.32;13.76
74045;BME280;62389;51.412;5.436;2023-03-01T09:58:54;102646.28;;;26.50;16.47
74045;BME280;62389;51.412;5.436;2023-03-01T10:05:00;102640.69;;;24.48;18.88
74045;BME280;62389;51.412;5.436;2023-03-01T10:09:49;102642.28;;;20.58;18.96
74045;BME280;62389;51.412;5.436;2023-03-01T10:12:21;102630.38;;;19.01;21.09
74045;BME280;62389;51.412;5.436;2023-03-01T10:18:05;102629.13;;;16.99;23.86
74045;BME280;62389;51.412;5.436;2023-03-01T10:20:58;102627.03;;;16.20;25.01
74045;BME280;62389;51.412;5.436;2023-03-01T10:23:25;102617.59;;;15.67;24.87
74045;BME280;62389;51.412;5.436;2023-03-01T10:31:03;102601.03;;;14.61;26.36
74045;BME280;62389;51.412;5.436;2023-03-01T10:33:32;102592.09;;;14.38;27.44
74045;BME280;62389;51.412;5.436;2023-03-01T10:35:58;102593.97;;;14.07;27.11
74045;BME280;62389;51.412;5.436;2023-03-01T10:38:24;102604.88;;;13.93;27.56
74045;BME280;62389;51.412;5.436;2023-03-01T10:41:04;102594.69;;;13.82;28.05
74045;BME280;62389;51.412;5.436;2023-03-01T10:43:46;102603.75;;;13.72;28.56
74045;BME280;62389;51.412;5.436;2023-03-01T10:46:23;102600.41;;;13.65;28.56
74045;BME280;62389;51.412;5.436;2023-03-01T10:49:15;102600.69;;;13.56;28.14
74045;BME280;62389;51.412;5.436;2023-03-01T10:51:43;102608.06;;;13.43;28.37
74045;BME280;62389;51.412;5.436;2023-03-01T10:56:54;102598.34;;;13.13;29.17
74045;BME280;62389;51.412;5.436;2023-03-01T10:59:28;102611.22;;;13.24;28.83
74045;BME280;62389;51.412;5.436;2023-03-01T11:07:46;102593.41;;;13.66;28.51
74045;BME280;62389;51.412;5.436;2023-03-01T11:10:17;102598.66;;;13.95;28.57
74045;BME280;62389;51.412;5.436;2023-03-01T11:12:43;102601.06;;;14.03;27.21
74045;BME280;62389;51.412;5.436;2023-03-01T11:15:20;102590.28;;;13.83;28.63
74045;BME280;62389;51.412;5.436;2023-03-01T11:17:47;102585.13;;;13.48;29.14
74045;BME280;62389;51.412;5.436;2023-03-01T11:22:45;102595.03;;;13.06;29.25
74045;BME280;62389;51.412;5.436;2023-03-01T11:25:13;102591.84;;;12.93;29.36
74045;BME280;62389;51.412;5.436;2023-03-01T11:27:43;102587.66;;;12.85;30.37
74045;BME280;62389;51.412;5.436;2023-03-01T11:30:15;102586.44;;;12.65;29.06
74045;BME280;62389;51.412;5.436;2023-03-01T11:32:47;102593.06;;;12.43;29.55
74045;BME280;62389;51.412;5.436;2023-03-01T11:35:21;102582.13;;;12.24;30.35
74045;BME280;62389;51.412;5.436;2023-03-01T11:38:23;102583.91;;;12.24;31.44
74045;BME280;62389;51.412;5.436;2023-03-01T11:43:52;102581.41;;;12.55;30.82
74045;BME280;62389;51.412;5.436;2023-03-01T11:51:50;102568.19;;;12.22;30.49
74045;BME280;62389;51.412;5.436;2023-03-01T11:56:55;102564.00;;;12.15;30.66
74045;BME280;62389;51.412;5.436;2023-03-01T12:37:29;102521.28;;;11.68;31.41
74045;BME280;62389;51.412;5.436;2023-03-01T12:50:23;102501.25;;;11.65;31.70
74045;BME280;62389;51.412;5.436;2023-03-01T12:52:52;102496.59;;;11.78;31.32
74045;BME280;62389;51.412;5.436;2023-03-01T12:55:37;102489.75;;;12.11;31.65
74045;BME280;62389;51.412;5.436;2023-03-01T13:09:12;102481.53;;;12.27;31.49
74045;BME280;62389;51.412;5.436;2023-03-01T13:11:42;102478.31;;;12.15;30.89
74045;BME280;62389;51.412;5.436;2023-03-01T13:16:45;102468.78;;;11.73;33.47
74045;BME280;62389;51.412;5.436;2023-03-01T13:19:19;102454.28;;;11.56;32.47
74045;BME280;62389;51.412;5.436;2023-03-01T13:21:46;102448.09;;;11.59;32.25
74045;BME280;62389;51.412;5.436;2023-03-01T13:24:35;102444.38;;;11.69;32.21
74045;BME280;62389;51.412;5.436;2023-03-01T13:27:08;102450.41;;;11.73;32.07
74045;BME280;62389;51.412;5.436;2023-03-01T13:29:50;102446.25;;;11.64;32.34
74045;BME280;62389;51.412;5.436;2023-03-01T13:32:24;102444.75;;;11.52;31.60
74045;BME280;62389;51.412;5.436;2023-03-01T13:34:53;102441.34;;;11.49;32.23
74045;BME280;62389;51.412;5.436;2023-03-01T13:37:25;102441.34;;;11.49;32.23
74045;BME280;62389;51.412;5.436;2023-03-01T13:39:51;102420.25;;;11.55;33.22
74045;BME280;62389;51.412;5.436;2023-03-01T13:42:35;102411.56;;;11.53;32.23
74045;BME280;62389;51.412;5.436;2023-03-01T13:48:22;102406.41;;;11.50;32.38
74045;BME280;62389;51.412;5.436;2023-03-01T13:50:55;102412.47;;;11.52;31.69
74045;BME280;62389;51.412;5.436;2023-03-01T13:53:24;102399.47;;;11.47;32.29
74045;BME280;62389;51.412;5.436;2023-03-01T13:55:55;102399.63;;;11.39;32.25
74045;BME280;62389;51.412;5.436;2023-03-01T13:58:28;102402.38;;;11.33;32.78
74045;BME280;62389;51.412;5.436;2023-03-01T14:03:25;102382.31;;;11.32;31.48
74045;BME280;62389;51.412;5.436;2023-03-01T14:08:28;102386.19;;;11.16;31.05
74045;BME280;62389;51.412;5.436;2023-03-01T14:13:49;102384.13;;;10.90;33.39
74045;BME280;62389;51.412;5.436;2023-03-01T14:16:39;102377.94;;;10.93;33.32
74045;BME280;62389;51.412;5.436;2023-03-01T14:21:33;102381.66;;;10.81;32.77
74045;BME280;62389;51.412;5.436;2023-03-01T14:24:00;102376.53;;;10.76;32.97
74045;BME280;62389;51.412;5.436;2023-03-01T14:26:25;102371.38;;;10.72;32.45
74045;BME280;62389;51.412;5.436;2023-03-01T14:28:51;102368.81;;;10.70;33.03
74045;BME280;62389;51.412;5.436;2023-03-01T14:31:36;102366.28;;;10.64;33.90
74045;BME280;62389;51.412;5.436;2023-03-01T14:34:02;102370.78;;;10.57;33.32
74045;BME280;62389;51.412;5.436;2023-03-01T14:36:30;102384.91;;;10.49;33.42
74045;BME280;62389;51.412;5.436;2023-03-01T14:38:56;102369.31;;;10.44;34.46
74045;BME280;62389;51.412;5.436;2023-03-01T14:41:32;102371.13;;;10.39;34.64
74045;BME280;62389;51.412;5.436;2023-03-01T14:44:05;102366.88;;;10.35;34.11
74045;BME280;62389;51.412;5.436;2023-03-01T14:46:37;102362.63;;;10.29;33.67
74045;BME280;62389;51.412;5.436;2023-03-01T14:51:37;102350.59;;;10.16;34.41
74045;BME280;62389;51.412;5.436;2023-03-01T14:54:04;102344.63;;;10.08;33.71
74045;BME280;62389;51.412;5.436;2023-03-01T14:56:46;102342.97;;;10.04;34.70
74045;BME280;62389;51.412;5.436;2023-03-01T14:59:12;102331.72;;;9.99;33.98
74045;BME280;62389;51.412;5.436;2023-03-01T15:01:40;102330.94;;;9.94;34.95
74045;BME280;62389;51.412;5.436;2023-03-01T15:04:10;102330.16;;;9.90;34.69
74045;BME280;62389;51.412;5.436;2023-03-01T15:06:37;102334.66;;;9.80;34.74
74045;BME280;62389;51.412;5.436;2023-03-01T15:09:03;102332.16;;;9.73;34.64
74045;BME280;62389;51.412;5.436;2023-03-01T15:11:32;102330.47;;;9.69;34.57